createdAt,value
2023-02-28T00:00:33.036Z,80.13
2023-02-28T00:02:34.497Z,79.97
2023-02-28T00:04:35.978Z,80.07
2023-02-28T00:06:37.532Z,80.17
2023-02-28T00:08:39.522Z,79.96
2023-02-28T00:10:41.016Z,80.23
2023-02-28T00:12:42.776Z,80.49
2023-02-28T00:14:44.237Z,80.44
2023-02-28T00:16:45.836Z,80.57
2023-02-28T00:18:48.644Z,80.55
2023-02-28T00:20:50.174Z,80.67
2023-02-28T00:22:53.463Z,80.78
2023-02-28T00:24:54.937Z,80.47
2023-02-28T00:26:56.398Z,80.73
2023-02-28T00:28:57.885Z,80.97
2023-02-28T00:31:01.058Z,80.93
2023-02-28T00:33:02.621Z,80.77
2023-02-28T00:35:05.321Z,81.19
2023-02-28T00:37:08.310Z,81.30
2023-02-28T00:39:09.837Z,81.37
2023-02-28T00:41:11.598Z,81.57
2023-02-28T00:43:13.173Z,81.55
2023-02-28T00:45:14.628Z,81.47
2023-02-28T00:47:16.177Z,81.74
2023-02-28T00:49:17.868Z,81.43
2023-02-28T00:51:19.317Z,81.30
2023-02-28T00:53:21.237Z,81.48
2023-02-28T00:55:22.780Z,81.44
2023-02-28T00:57:24.294Z,81.59
2023-02-28T00:59:25.935Z,81.32
2023-02-28T01:01:27.835Z,81.40
2023-02-28T01:03:29.618Z,81.53
2023-02-28T01:05:31.128Z,81.59
2023-02-28T01:07:32.572Z,81.69
2023-02-28T01:09:34.095Z,81.56
2023-02-28T01:11:36.411Z,81.07
2023-02-28T01:13:38.496Z,81.29
2023-02-28T01:15:47.098Z,80.84
2023-02-28T01:17:48.631Z,80.95
2023-02-28T01:19:50.160Z,80.97
2023-02-28T01:21:51.627Z,80.79
2023-02-28T01:23:53.096Z,80.84
2023-02-28T01:25:54.568Z,80.91
2023-02-28T01:27:56.159Z,80.80
2023-02-28T01:29:57.618Z,80.84
2023-02-28T01:32:00.553Z,80.58
2023-02-28T01:34:02.382Z,80.82
2023-02-28T01:36:07.113Z,80.92
2023-02-28T01:38:21.308Z,81.05
2023-02-28T01:40:23.848Z,81.05
2023-02-28T01:42:25.336Z,80.84
2023-02-28T01:44:54.817Z,80.89
2023-02-28T01:46:56.369Z,81.03
2023-02-28T01:49:05.252Z,80.95
2023-02-28T01:51:09.761Z,81.21
2023-02-28T01:53:18.810Z,81.10
2023-02-28T01:55:22.386Z,81.00
2023-02-28T01:57:30.668Z,81.08
2023-02-28T01:59:47.442Z,81.25
2023-02-28T02:01:49.764Z,81.36
2023-02-28T02:03:57.372Z,81.20
2023-02-28T02:05:58.853Z,81.12
2023-02-28T02:08:06.419Z,81.23
2023-02-28T02:10:17.198Z,81.49
2023-02-28T02:12:39.641Z,81.37
2023-02-28T02:14:53.206Z,80.90
2023-02-28T02:17:29.220Z,81.18
2023-02-28T02:19:39.909Z,81.44
2023-02-28T02:21:56.069Z,81.23
2023-02-28T02:24:25.748Z,81.49
2023-02-28T02:26:49.038Z,81.60
2023-02-28T02:29:27.243Z,81.38
2023-02-28T02:32:04.835Z,81.45
2023-02-28T02:34:35.644Z,81.66
2023-02-28T02:36:50.181Z,81.50
2023-02-28T02:38:58.767Z,81.65
2023-02-28T02:41:12.401Z,82.27
2023-02-28T02:43:27.477Z,81.68
2023-02-28T02:45:45.887Z,81.72
2023-02-28T02:47:49.138Z,81.72
2023-02-28T02:49:53.647Z,81.84
2023-02-28T02:51:59.250Z,81.72
2023-02-28T02:54:09.946Z,81.77
2023-02-28T02:56:13.191Z,82.14
2023-02-28T02:58:20.142Z,81.64
2023-02-28T03:00:27.485Z,81.96
2023-02-28T03:02:35.144Z,81.73
2023-02-28T03:04:44.464Z,81.81
2023-02-28T03:06:45.957Z,82.09
2023-02-28T03:08:47.426Z,82.20
2023-02-28T03:10:57.052Z,82.28
2023-02-28T03:13:35.475Z,82.00
2023-02-28T03:16:00.498Z,82.02
2023-02-28T03:18:09.489Z,82.08
2023-02-28T03:20:28.963Z,82.04
2023-02-28T03:22:43.357Z,82.30
2023-02-28T03:24:49.352Z,82.23
2023-02-28T03:27:02.541Z,82.51
2023-02-28T03:29:28.920Z,82.27
2023-02-28T03:31:36.161Z,81.99
2023-02-28T03:33:43.513Z,82.41
2023-02-28T03:35:52.533Z,82.34
2023-02-28T03:38:05.880Z,82.52
2023-02-28T03:40:13.709Z,82.69
2023-02-28T03:42:19.760Z,82.98
2023-02-28T03:44:30.290Z,82.95
2023-02-28T03:46:37.247Z,82.73
2023-02-28T03:48:45.490Z,83.20
2023-02-28T03:50:50.266Z,83.13
2023-02-28T03:53:02.124Z,83.48
2023-02-28T03:55:10.710Z,83.46
2023-02-28T03:57:38.408Z,82.91
2023-02-28T03:59:50.838Z,82.19
2023-02-28T04:01:52.685Z,82.28
2023-02-28T04:03:54.536Z,82.40
2023-02-28T04:05:58.273Z,83.01
2023-02-28T04:08:09.500Z,83.37
2023-02-28T04:10:12.756Z,83.60
2023-02-28T04:12:14.217Z,83.67
2023-02-28T04:14:16.039Z,83.78
2023-02-28T04:16:33.522Z,84.12
2023-02-28T04:18:35.752Z,83.92
2023-02-28T04:20:37.443Z,84.18
2023-02-28T04:22:38.892Z,83.98
2023-02-28T04:24:42.456Z,84.17
2023-02-28T04:26:49.512Z,84.12
2023-02-28T04:28:50.970Z,84.02
2023-02-28T04:30:57.708Z,84.03
2023-02-28T04:33:01.076Z,84.15
2023-02-28T04:35:03.603Z,84.20
2023-02-28T04:37:13.164Z,84.27
2023-02-28T04:39:16.796Z,84.07
2023-02-28T04:41:18.714Z,84.06
2023-02-28T04:43:20.175Z,84.19
2023-02-28T04:45:21.768Z,84.24
2023-02-28T04:47:23.300Z,84.43
2023-02-28T04:49:24.859Z,84.63
2023-02-28T04:51:26.364Z,84.55
2023-02-28T04:53:29.408Z,84.40
2023-02-28T04:55:30.869Z,84.51
2023-02-28T04:57:32.314Z,84.55
2023-02-28T04:59:34.008Z,84.49
2023-02-28T05:01:35.899Z,84.77
2023-02-28T05:03:37.350Z,84.91
2023-02-28T05:05:38.791Z,84.70
2023-02-28T05:07:40.250Z,84.81
2023-02-28T05:09:41.697Z,84.90
2023-02-28T05:11:43.340Z,85.05
2023-02-28T05:13:44.892Z,85.06
2023-02-28T05:15:46.359Z,84.77
2023-02-28T05:17:47.880Z,84.97
2023-02-28T05:19:49.316Z,84.89
2023-02-28T05:21:54.492Z,84.94
2023-02-28T05:23:57.747Z,84.98
2023-02-28T05:25:59.471Z,85.18
2023-02-28T05:28:00.987Z,85.07
2023-02-28T05:30:04.488Z,84.97
2023-02-28T05:32:06.061Z,84.91
2023-02-28T05:34:07.596Z,84.92
2023-02-28T05:36:09.392Z,85.35
2023-02-28T05:38:10.867Z,84.95
2023-02-28T05:40:12.749Z,85.58
2023-02-28T05:42:14.242Z,85.16
2023-02-28T05:44:16.568Z,85.93
2023-02-28T05:46:18.277Z,85.62
2023-02-28T05:48:19.779Z,85.78
2023-02-28T05:50:21.361Z,86.08
2023-02-28T05:52:23.002Z,86.22
2023-02-28T05:54:24.448Z,86.17
2023-02-28T05:56:26.354Z,86.93
2023-02-28T05:58:31.528Z,86.90
2023-02-28T06:00:33.050Z,86.50
2023-02-28T06:02:34.597Z,86.64
2023-02-28T06:04:36.086Z,86.91
2023-02-28T06:06:38.044Z,86.99
2023-02-28T06:08:39.494Z,86.96
2023-02-28T06:10:40.971Z,87.23
2023-02-28T06:12:42.997Z,87.63
2023-02-28T06:14:44.604Z,87.70
2023-02-28T06:16:46.414Z,87.40
2023-02-28T06:18:47.934Z,87.49
2023-02-28T06:20:56.310Z,87.50
2023-02-28T06:23:01.530Z,88.20
2023-02-28T06:25:04.291Z,87.94
2023-02-28T06:27:06.553Z,88.00
2023-02-28T06:29:08.501Z,88.14
2023-02-28T06:31:12.286Z,88.20
2023-02-28T06:33:13.773Z,87.95
2023-02-28T06:35:15.320Z,88.28
2023-02-28T06:37:17.494Z,87.97
2023-02-28T06:39:19.372Z,88.17
2023-02-28T06:41:22.144Z,87.79
2023-02-28T06:43:24.383Z,87.69
2023-02-28T06:45:27.124Z,87.99
2023-02-28T06:47:28.565Z,87.77
2023-02-28T06:49:31.723Z,87.82
2023-02-28T06:51:33.179Z,87.30
2023-02-28T06:53:35.068Z,87.67
2023-02-28T06:55:39.140Z,87.26
2023-02-28T06:57:40.663Z,87.13
2023-02-28T06:59:42.123Z,86.83
2023-02-28T07:01:43.728Z,87.14
2023-02-28T07:03:45.277Z,86.81
2023-02-28T07:05:46.754Z,86.83
2023-02-28T07:07:48.263Z,86.85
2023-02-28T07:09:49.755Z,86.59
2023-02-28T07:11:51.243Z,86.67
2023-02-28T07:13:54.281Z,86.31
2023-02-28T07:15:57.787Z,86.33
2023-02-28T07:17:59.378Z,85.97
2023-02-28T07:20:00.841Z,86.30
2023-02-28T07:22:03.757Z,86.35
2023-02-28T07:24:05.513Z,85.79
2023-02-28T07:26:07.688Z,86.08
2023-02-28T07:28:09.186Z,85.52
2023-02-28T07:30:11.341Z,85.94
2023-02-28T07:32:12.830Z,85.66
2023-02-28T07:34:15.005Z,85.42
2023-02-28T07:36:19.773Z,85.13
2023-02-28T07:38:21.304Z,84.68
2023-02-28T07:40:22.875Z,84.83
2023-02-28T07:42:24.333Z,84.29
2023-02-28T07:44:25.897Z,84.19
2023-02-28T07:46:30.439Z,84.03
2023-02-28T07:48:32.625Z,83.90
2023-02-28T07:50:35.483Z,83.63
2023-02-28T07:52:40.572Z,83.26
2023-02-28T07:54:42.049Z,83.80
2023-02-28T07:56:43.517Z,83.64
2023-02-28T07:58:44.984Z,83.41
2023-02-28T08:00:46.471Z,82.56
2023-02-28T08:02:47.981Z,82.59
2023-02-28T08:04:50.334Z,82.81
2023-02-28T08:06:53.985Z,82.36
2023-02-28T08:08:57.082Z,82.43
2023-02-28T08:11:03.217Z,82.91
2023-02-28T08:13:04.784Z,82.67
2023-02-28T08:15:06.932Z,82.33
2023-02-28T08:17:08.423Z,82.66
2023-02-28T08:19:10.091Z,82.66
2023-02-28T08:21:11.971Z,81.93
2023-02-28T08:23:13.507Z,81.69
2023-02-28T08:25:15.071Z,81.59
2023-02-28T08:27:16.556Z,81.27
2023-02-28T08:29:18.061Z,80.81
2023-02-28T08:31:19.953Z,80.74
2023-02-28T08:33:21.616Z,80.87
2023-02-28T08:35:23.625Z,80.45
2023-02-28T08:37:25.495Z,79.69
2023-02-28T08:39:27.051Z,78.81
2023-02-28T08:41:29.051Z,76.67
2023-02-28T08:43:30.776Z,74.15
2023-02-28T08:45:32.317Z,72.03
2023-02-28T08:47:33.841Z,71.21
2023-02-28T08:49:35.393Z,69.98
2023-02-28T08:51:36.875Z,69.56
2023-02-28T08:53:40.212Z,69.00
2023-02-28T08:55:41.682Z,67.82
2023-02-28T08:57:43.153Z,67.52
2023-02-28T08:59:44.678Z,67.55
2023-02-28T09:01:46.252Z,67.61
2023-02-28T09:03:50.543Z,67.08
2023-02-28T09:05:54.880Z,66.63
2023-02-28T09:07:56.417Z,66.89
2023-02-28T09:09:58.827Z,66.54
2023-02-28T09:12:00.393Z,66.30
2023-02-28T09:14:04.256Z,65.68
2023-02-28T09:16:09.951Z,64.50
2023-02-28T09:18:11.831Z,64.04
2023-02-28T09:20:13.504Z,63.56
2023-02-28T09:22:14.953Z,63.47
2023-02-28T09:24:16.478Z,63.37
2023-02-28T09:26:21.169Z,63.01
2023-02-28T09:28:23.723Z,62.56
2023-02-28T09:30:25.369Z,62.50
2023-02-28T09:32:27.070Z,62.11
2023-02-28T09:34:31.922Z,61.83
2023-02-28T09:36:43.796Z,61.03
2023-02-28T09:38:48.782Z,59.82
2023-02-28T09:41:00.453Z,60.35
2023-02-28T09:43:01.924Z,61.99
2023-02-28T09:45:14.321Z,61.51
2023-02-28T09:47:20.986Z,61.61
2023-02-28T09:49:26.642Z,62.83
2023-02-28T09:51:33.497Z,62.00
2023-02-28T09:53:40.458Z,57.87
2023-02-28T09:55:52.395Z,57.17
2023-02-28T09:57:55.477Z,56.73
2023-02-28T10:00:20.242Z,59.40
2023-02-28T10:02:39.389Z,59.97
2023-02-28T10:04:56.292Z,65.29
2023-02-28T10:06:58.825Z,68.53
2023-02-28T10:09:03.005Z,66.62
2023-02-28T10:11:08.616Z,64.41
2023-02-28T10:13:25.902Z,67.48
2023-02-28T10:15:32.096Z,69.60
2023-02-28T10:17:54.764Z,68.42
2023-02-28T10:20:12.494Z,66.05
2023-02-28T10:22:30.106Z,63.71
2023-02-28T10:24:39.944Z,62.32
2023-02-28T10:26:46.152Z,61.64
2023-02-28T10:28:47.849Z,60.80
2023-02-28T10:30:54.246Z,56.46
2023-02-28T10:32:56.310Z,57.16
2023-02-28T10:35:18.560Z,58.69
2023-02-28T10:37:20.803Z,59.20
2023-02-28T10:39:45.110Z,58.80
2023-02-28T10:41:46.600Z,58.11
2023-02-28T10:43:48.179Z,58.01
2023-02-28T10:46:00.587Z,59.90
2023-02-28T10:48:05.991Z,59.77
2023-02-28T10:50:44.348Z,61.87
2023-02-28T10:52:45.852Z,62.78
2023-02-28T10:54:47.313Z,63.52
2023-02-28T10:57:20.529Z,60.19
2023-02-28T10:59:29.466Z,57.98
2023-02-28T11:01:31.256Z,55.48
2023-02-28T11:03:36.049Z,52.40
2023-02-28T11:05:37.652Z,52.88
2023-02-28T11:07:52.979Z,54.86
2023-02-28T11:09:57.778Z,61.75
2023-02-28T11:11:59.873Z,63.43
2023-02-28T11:14:06.949Z,60.94
2023-02-28T11:16:12.580Z,52.44
2023-02-28T11:18:14.025Z,53.37
2023-02-28T11:20:22.558Z,49.19
2023-02-28T11:22:30.754Z,49.56
2023-02-28T11:24:36.654Z,46.07
2023-02-28T11:26:57.767Z,42.84
2023-02-28T11:29:13.153Z,48.65
2023-02-28T11:31:17.712Z,44.10
2023-02-28T11:33:25.176Z,39.02
2023-02-28T11:35:35.675Z,38.69
2023-02-28T11:37:39.051Z,36.48
2023-02-28T11:39:40.709Z,38.09
2023-02-28T11:42:02.712Z,38.86
2023-02-28T11:44:29.288Z,38.26
2023-02-28T11:47:01.749Z,37.32
2023-02-28T11:49:18.481Z,35.47
2023-02-28T11:51:29.573Z,34.78
2023-02-28T11:53:57.043Z,34.87
2023-02-28T11:56:12.358Z,35.24
2023-02-28T11:58:48.334Z,36.79
2023-02-28T12:00:55.357Z,35.06
2023-02-28T12:03:19.106Z,43.86
2023-02-28T12:05:44.797Z,35.25
2023-02-28T12:07:59.555Z,36.60
2023-02-28T12:10:23.743Z,34.79
2023-02-28T12:12:35.356Z,33.20
2023-02-28T12:15:03.953Z,29.31
2023-02-28T12:17:20.506Z,27.65
2023-02-28T12:19:29.195Z,27.52
2023-02-28T12:21:30.823Z,27.39
2023-02-28T12:23:35.169Z,28.18
2023-02-28T12:25:49.187Z,25.28
2023-02-28T12:27:54.113Z,26.75
2023-02-28T12:30:01.902Z,26.03
2023-02-28T12:32:09.396Z,29.84
2023-02-28T12:34:16.647Z,28.38
2023-02-28T12:36:23.105Z,31.99
2023-02-28T12:38:35.506Z,30.05
2023-02-28T12:40:50.039Z,28.38
2023-02-28T12:43:01.682Z,28.05
2023-02-28T12:45:11.307Z,29.72
2023-02-28T12:47:19.580Z,34.63
2023-02-28T12:49:32.747Z,38.80
2023-02-28T12:51:37.252Z,37.32
2023-02-28T12:53:50.914Z,32.45
2023-02-28T12:56:16.574Z,33.91
2023-02-28T12:58:30.904Z,30.28
2023-02-28T13:00:41.383Z,34.50
2023-02-28T13:03:07.753Z,39.85
2023-02-28T13:05:27.607Z,41.02
2023-02-28T13:07:47.657Z,48.35
2023-02-28T13:09:58.778Z,39.78
2023-02-28T13:12:00.566Z,41.02
2023-02-28T13:14:14.857Z,48.59
2023-02-28T13:16:16.533Z,49.68
2023-02-28T13:18:42.744Z,33.30
2023-02-28T13:20:49.230Z,36.57
2023-02-28T13:22:54.199Z,52.68
2023-02-28T13:24:57.433Z,53.37
2023-02-28T13:27:02.031Z,51.55
2023-02-28T13:29:16.837Z,52.04
2023-02-28T13:31:19.604Z,48.07
2023-02-28T13:33:21.050Z,48.48
2023-02-28T13:35:44.067Z,47.45
2023-02-28T13:37:50.809Z,52.44
2023-02-28T13:39:57.487Z,45.20
2023-02-28T13:42:35.311Z,42.29
2023-02-28T13:45:02.888Z,34.33
2023-02-28T13:47:04.338Z,47.21
2023-02-28T13:49:21.230Z,37.27
2023-02-28T13:51:45.096Z,52.12
2023-02-28T13:54:03.608Z,54.50
2023-02-28T13:56:21.679Z,57.17
2023-02-28T13:58:50.248Z,53.48
2023-02-28T14:01:04.040Z,43.44
2023-02-28T14:03:39.062Z,50.68
2023-02-28T14:05:40.883Z,55.17
2023-02-28T14:07:48.201Z,54.08
2023-02-28T14:09:58.496Z,51.22
2023-02-28T14:12:38.708Z,52.68
2023-02-28T14:14:40.099Z,55.44
2023-02-28T14:16:50.633Z,54.54
2023-02-28T14:19:01.487Z,55.59
2023-02-28T14:21:12.105Z,56.75
2023-02-28T14:23:51.352Z,58.43
2023-02-28T14:26:15.985Z,58.12
2023-02-28T14:28:55.051Z,59.55
2023-02-28T14:31:01.869Z,59.65
2023-02-28T14:33:34.722Z,59.62
2023-02-28T14:36:03.720Z,57.59
2023-02-28T14:38:22.344Z,58.49
2023-02-28T14:40:28.861Z,59.76
2023-02-28T14:42:38.976Z,57.35
2023-02-28T14:44:40.510Z,55.84
2023-02-28T14:46:44.006Z,57.89
2023-02-28T14:48:50.750Z,57.52
2023-02-28T14:50:54.931Z,58.35
2023-02-28T14:52:56.751Z,59.08
2023-02-28T14:55:01.240Z,59.40
2023-02-28T14:57:03.243Z,59.68
2023-02-28T14:59:06.326Z,60.89
2023-02-28T15:01:12.137Z,61.23
2023-02-28T15:03:35.003Z,62.08
2023-02-28T15:05:36.517Z,61.87
2023-02-28T15:07:38.316Z,61.25
2023-02-28T15:09:39.898Z,60.32
2023-02-28T15:11:41.865Z,56.45
2023-02-28T15:13:47.467Z,57.99
2023-02-28T15:16:02.994Z,59.12
2023-02-28T15:18:07.227Z,60.68
2023-02-28T15:20:13.760Z,60.42
2023-02-28T15:22:20.553Z,60.86
2023-02-28T15:24:25.587Z,59.98
2023-02-28T15:26:33.583Z,59.05
2023-02-28T15:28:35.118Z,61.49
2023-02-28T15:30:37.815Z,63.17
2023-02-28T15:32:40.962Z,62.67
2023-02-28T15:34:44.987Z,63.05
2023-02-28T15:36:46.738Z,64.21
2023-02-28T15:38:53.122Z,64.59
2023-02-28T15:40:57.109Z,65.42
2023-02-28T15:42:59.909Z,65.30
2023-02-28T15:45:01.399Z,65.08
2023-02-28T15:47:18.915Z,65.67
2023-02-28T15:49:22.492Z,64.88
2023-02-28T15:51:39.438Z,65.10
2023-02-28T15:53:46.669Z,64.56
2023-02-28T15:55:55.784Z,65.05
2023-02-28T15:58:01.306Z,65.90
2023-02-28T16:00:06.639Z,63.62
2023-02-28T16:02:21.639Z,65.05
2023-02-28T16:04:24.884Z,65.55
2023-02-28T16:06:32.414Z,67.59
2023-02-28T16:08:33.872Z,68.52
2023-02-28T16:10:35.342Z,68.76
2023-02-28T16:12:39.119Z,68.89
2023-02-28T16:14:41.330Z,69.37
2023-02-28T16:16:49.511Z,70.25
2023-02-28T16:18:51.560Z,69.84
2023-02-28T16:20:53.026Z,69.71
2023-02-28T16:22:55.480Z,70.26
2023-02-28T16:24:56.985Z,70.45
2023-02-28T16:26:58.823Z,70.16
2023-02-28T16:29:00.465Z,70.82
2023-02-28T16:31:05.987Z,70.46
2023-02-28T16:33:09.354Z,71.92
2023-02-28T16:35:11.792Z,71.65
2023-02-28T16:37:15.467Z,71.75
2023-02-28T16:39:17.065Z,72.15
2023-02-28T16:41:29.525Z,71.85
2023-02-28T16:43:31.154Z,72.25
2023-02-28T16:45:32.775Z,71.98
2023-02-28T16:47:34.471Z,72.21
2023-02-28T16:49:35.914Z,72.39
2023-02-28T16:51:37.506Z,73.15
2023-02-28T16:53:39.166Z,73.39
2023-02-28T16:55:41.096Z,73.84
2023-02-28T16:57:44.332Z,74.09
2023-02-28T16:59:45.865Z,73.51
2023-02-28T17:01:47.432Z,73.13
2023-02-28T17:03:50.176Z,73.43
2023-02-28T17:05:51.730Z,73.27
2023-02-28T17:07:53.238Z,73.53
2023-02-28T17:09:54.674Z,73.67
2023-02-28T17:11:57.625Z,73.41
2023-02-28T17:13:59.113Z,74.21
2023-02-28T17:16:00.752Z,74.32
2023-02-28T17:18:02.614Z,75.20
2023-02-28T17:20:04.881Z,75.13
2023-02-28T17:22:06.357Z,75.99
2023-02-28T17:24:08.193Z,75.55
2023-02-28T17:26:18.526Z,76.36
2023-02-28T17:28:22.129Z,76.32
2023-02-28T17:30:28.088Z,76.63
2023-02-28T17:32:29.602Z,76.86
2023-02-28T17:34:31.200Z,77.39
2023-02-28T17:36:34.606Z,77.85
2023-02-28T17:38:36.294Z,77.03
2023-02-28T17:40:37.855Z,77.92
2023-02-28T17:42:39.431Z,78.00
2023-02-28T17:44:40.968Z,78.02
2023-02-28T17:46:43.297Z,78.20
2023-02-28T17:48:45.145Z,77.84
2023-02-28T17:50:46.960Z,78.76
2023-02-28T17:52:48.909Z,78.75
2023-02-28T17:54:50.400Z,78.47
2023-02-28T17:56:51.883Z,78.68
2023-02-28T17:58:56.061Z,78.57
2023-02-28T18:00:57.778Z,79.67
2023-02-28T18:02:59.309Z,79.34
2023-02-28T18:05:00.973Z,79.60
2023-02-28T18:07:02.692Z,79.83
2023-02-28T18:09:04.170Z,79.85
2023-02-28T18:11:05.665Z,80.46
2023-02-28T18:13:07.137Z,80.64
2023-02-28T18:15:09.104Z,80.99
2023-02-28T18:17:13.252Z,80.76
2023-02-28T18:19:17.002Z,80.96
2023-02-28T18:21:18.446Z,81.13
2023-02-28T18:23:21.544Z,81.17
2023-02-28T18:25:23.405Z,80.92
2023-02-28T18:27:24.901Z,81.26
2023-02-28T18:29:28.565Z,81.60
2023-02-28T18:31:32.435Z,81.86
2023-02-28T18:33:34.331Z,81.66
2023-02-28T18:35:36.131Z,81.82
2023-02-28T18:37:38.394Z,82.14
2023-02-28T18:39:40.541Z,82.08
2023-02-28T18:41:42.172Z,82.41
2023-02-28T18:43:44.413Z,82.47
2023-02-28T18:45:45.939Z,82.53
2023-02-28T18:47:47.424Z,82.72
2023-02-28T18:49:48.895Z,82.94
2023-02-28T18:51:50.340Z,82.99
2023-02-28T18:53:52.424Z,82.99
2023-02-28T18:55:53.922Z,83.05
2023-02-28T18:57:55.414Z,83.19
2023-02-28T18:59:56.965Z,83.19
2023-02-28T19:01:58.652Z,83.03
2023-02-28T19:04:01.785Z,82.94
2023-02-28T19:06:03.619Z,83.00
2023-02-28T19:08:05.127Z,83.13
2023-02-28T19:10:07.354Z,83.27
2023-02-28T19:12:10.345Z,83.35
2023-02-28T19:14:11.818Z,83.27
2023-02-28T19:16:15.992Z,83.35
2023-02-28T19:18:17.550Z,83.11
2023-02-28T19:20:19.779Z,83.37
2023-02-28T19:22:21.581Z,83.27
2023-02-28T19:24:23.134Z,83.59
2023-02-28T19:26:26.227Z,83.32
2023-02-28T19:28:33.441Z,83.31
2023-02-28T19:30:35.048Z,83.58
2023-02-28T19:32:37.043Z,83.81
2023-02-28T19:34:38.791Z,83.83
2023-02-28T19:36:40.337Z,83.93
2023-02-28T19:38:42.559Z,83.80
2023-02-28T19:40:44.486Z,83.78
2023-02-28T19:42:45.974Z,83.93
2023-02-28T19:44:47.438Z,84.12
2023-02-28T19:46:48.881Z,83.95
2023-02-28T19:48:53.808Z,84.02
2023-02-28T19:51:01.295Z,84.04
2023-02-28T19:53:02.890Z,84.71
2023-02-28T19:55:04.820Z,84.30
2023-02-28T19:57:06.365Z,84.98
2023-02-28T19:59:16.796Z,84.85
2023-02-28T20:01:23.208Z,84.77
2023-02-28T20:03:24.761Z,84.71
2023-02-28T20:05:26.331Z,84.60
2023-02-28T20:07:27.895Z,84.82
2023-02-28T20:09:32.829Z,84.68
2023-02-28T20:11:34.277Z,85.02
2023-02-28T20:13:36.142Z,85.34
2023-02-28T20:15:37.827Z,85.18
2023-02-28T20:17:41.877Z,84.88
2023-02-28T20:19:43.528Z,85.10
2023-02-28T20:21:45.520Z,84.51
2023-02-28T20:23:48.684Z,84.99
2023-02-28T20:25:51.627Z,84.56
2023-02-28T20:27:53.113Z,84.55
2023-02-28T20:29:54.611Z,85.07
2023-02-28T20:31:58.236Z,85.02
2023-02-28T20:33:59.838Z,85.18
2023-02-28T20:36:02.340Z,84.87
2023-02-28T20:38:03.834Z,85.18
2023-02-28T20:40:06.524Z,85.37
2023-02-28T20:42:07.973Z,85.21
2023-02-28T20:44:13.128Z,85.18
2023-02-28T20:46:14.707Z,85.65
2023-02-28T20:48:16.213Z,85.67
2023-02-28T20:50:17.878Z,85.47
2023-02-28T20:52:19.514Z,85.36
2023-02-28T20:54:21.620Z,85.40
2023-02-28T20:56:25.998Z,85.65
2023-02-28T20:58:31.120Z,85.71
2023-02-28T21:00:32.598Z,85.48
2023-02-28T21:02:34.089Z,85.59
2023-02-28T21:04:35.640Z,85.92
2023-02-28T21:06:41.953Z,85.79
2023-02-28T21:08:44.013Z,85.83
2023-02-28T21:10:45.469Z,86.12
2023-02-28T21:12:50.426Z,85.83
2023-02-28T21:14:51.868Z,85.84
2023-02-28T21:16:53.393Z,86.24
2023-02-28T21:18:55.849Z,86.23
2023-02-28T21:21:11.863Z,86.09
2023-02-28T21:23:13.306Z,86.12
2023-02-28T21:25:15.212Z,86.49
2023-02-28T21:27:16.905Z,86.37
2023-02-28T21:29:18.369Z,86.41
2023-02-28T21:31:21.512Z,86.28
2023-02-28T21:33:22.946Z,86.57
2023-02-28T21:35:24.533Z,86.70
2023-02-28T21:37:26.093Z,86.52
2023-02-28T21:39:30.068Z,86.63
2023-02-28T21:41:31.641Z,86.49
2023-02-28T21:43:33.199Z,86.38
2023-02-28T21:45:34.735Z,86.18
2023-02-28T21:47:36.281Z,86.51
2023-02-28T21:49:39.133Z,86.58
2023-02-28T21:51:42.656Z,86.39
2023-02-28T21:53:44.473Z,86.45
2023-02-28T21:55:45.942Z,86.63
2023-02-28T21:57:47.390Z,86.48
2023-02-28T21:59:48.909Z,86.39
2023-02-28T22:01:55.274Z,86.36
2023-02-28T22:03:58.759Z,86.35
2023-02-28T22:06:00.341Z,86.50
2023-02-28T22:08:01.807Z,86.13
2023-02-28T22:10:03.844Z,86.41
2023-02-28T22:12:08.381Z,86.40
2023-02-28T22:14:12.463Z,86.23
2023-02-28T22:16:19.479Z,86.25
2023-02-28T22:18:20.928Z,86.34
2023-02-28T22:20:22.377Z,86.28
2023-02-28T22:22:23.846Z,86.31
2023-02-28T22:24:25.322Z,86.35
2023-02-28T22:26:26.836Z,86.35
2023-02-28T22:28:30.150Z,86.32
2023-02-28T22:30:31.728Z,86.16
2023-02-28T22:32:33.184Z,86.32
2023-02-28T22:34:35.286Z,86.24
2023-02-28T22:36:37.298Z,86.18
2023-02-28T22:38:39.262Z,86.34
2023-02-28T22:40:41.011Z,86.00
2023-02-28T22:42:42.729Z,86.07
2023-02-28T22:44:46.776Z,85.94
2023-02-28T22:46:52.476Z,86.06
2023-02-28T22:48:54.525Z,85.94
2023-02-28T22:51:15.058Z,85.91
2023-02-28T22:53:16.651Z,85.84
2023-02-28T22:55:18.227Z,85.56
2023-02-28T22:57:20.379Z,85.64
2023-02-28T22:59:21.948Z,85.57
2023-02-28T23:01:26.732Z,85.73
2023-02-28T23:03:28.822Z,85.62
2023-02-28T23:05:32.631Z,85.65
2023-02-28T23:07:34.281Z,84.93
2023-02-28T23:09:35.925Z,85.66
2023-02-28T23:11:43.750Z,85.64
2023-02-28T23:13:58.151Z,85.57
2023-02-28T23:15:59.712Z,85.37
2023-02-28T23:18:01.254Z,85.01
2023-02-28T23:20:02.985Z,85.29
2023-02-28T23:22:05.697Z,85.46
2023-02-28T23:24:10.587Z,85.07
2023-02-28T23:26:12.255Z,85.24
2023-02-28T23:28:13.737Z,85.30
2023-02-28T23:30:15.633Z,85.26
2023-02-28T23:32:17.299Z,85.12
2023-02-28T23:34:26.333Z,85.33
2023-02-28T23:36:29.474Z,84.96
2023-02-28T23:38:31.131Z,84.93
2023-02-28T23:40:32.689Z,84.92
2023-02-28T23:42:37.985Z,84.97
2023-02-28T23:44:39.587Z,84.93
2023-02-28T23:46:41.104Z,85.01
2023-02-28T23:48:42.952Z,85.02
2023-02-28T23:50:44.484Z,85.12
2023-02-28T23:52:46.055Z,84.83
2023-02-28T23:54:47.573Z,84.84
2023-02-28T23:56:49.170Z,84.41
2023-02-28T23:58:51.634Z,84.83
